Time;durP1;ratioP1;P1;durP2;ratioP2;P2;SDS_P1;SDS_P2;PMS_P1;PMS_P2;Temp;Humidity;BMP_temperature;BMP_pressure;BME280_temperature;BME280_humidity;BME280_pressure;Samples;Min_cycle;Max_cycle;Signal;HPM_P1;HPM_P2
2022/12/24 00:00:39;;;;;;;0.20;0.00;;;16.50;99.90;;;;;;20879356;28;20408;-77
2022/12/24 00:10:44;;;;;;;0.20;0.00;;;16.60;99.90;;;;;;20878633;28;20416;-78
2022/12/24 00:20:49;;;;;;;0.20;0.08;;;16.40;99.90;;;;;;20877736;28;20506;-78
2022/12/24 00:30:53;;;;;;;0.20;0.10;;;16.10;99.90;;;;;;20892514;28;20414;-78
2022/12/24 00:41:00;;;;;;;0.20;0.10;;;16.20;99.90;;;;;;20946775;28;20862;-78
2022/12/24 00:51:04;;;;;;;0.20;0.10;;;16.10;99.90;;;;;;20910314;28;20447;-77
2022/12/24 01:01:10;;;;;;;0.20;0.05;;;15.90;99.90;;;;;;20909513;28;20494;-77
2022/12/24 01:11:14;;;;;;;0.20;0.10;;;15.60;99.90;;;;;;20909035;28;20407;-78
2022/12/24 01:21:19;;;;;;;0.20;0.00;;;15.40;99.90;;;;;;20873866;28;20439;-78
2022/12/24 01:31:23;;;;;;;0.20;0.10;;;15.10;99.90;;;;;;20872770;28;20427;-77
2022/12/24 01:51:54;;;;;;;0.20;0.10;;;15.30;99.90;;;;;;20970635;28;20885;-77
2022/12/24 02:02:01;;;;;;;0.20;0.00;;;15.00;99.90;;;;;;20969711;28;20769;-76
2022/12/24 02:12:07;;;;;;;0.20;0.10;;;14.60;99.90;;;;;;20986525;28;20418;-77
2022/12/24 02:22:15;;;;;;;0.20;0.10;;;14.60;99.90;;;;;;20986516;28;20413;-76
2022/12/24 02:32:24;;;;;;;0.20;0.00;;;14.80;99.90;;;;;;20976134;28;20415;-76
2022/12/24 02:42:32;;;;;;;0.20;0.00;;;15.00;99.90;;;;;;20901972;28;20399;-75
2022/12/24 02:52:38;;;;;;;0.20;0.10;;;15.10;99.90;;;;;;20899835;28;20420;-76
2022/12/24 03:02:55;;;;;;;0.20;0.10;;;14.50;99.90;;;;;;20900194;28;20902;-77
2022/12/24 03:13:04;;;;;;;0.20;0.00;;;14.30;99.90;;;;;;20899428;28;20407;-77
2022/12/24 03:23:08;;;;;;;0.20;0.10;;;14.00;99.90;;;;;;20881784;28;20412;-76
2022/12/24 03:33:14;;;;;;;0.20;0.10;;;13.60;99.90;;;;;;20894874;28;20416;-76
2022/12/24 03:43:18;;;;;;;0.20;0.00;;;13.20;99.90;;;;;;20980824;28;20752;-77
2022/12/24 03:53:23;;;;;;;0.20;0.03;;;12.70;99.90;;;;;;20993590;28;20404;-76
2022/12/24 04:03:27;;;;;;;0.20;0.00;;;12.50;99.90;;;;;;20980761;28;20408;-77
2022/12/24 04:13:32;;;;;;;0.20;0.00;;;12.70;99.90;;;;;;20969932;28;20980;-76
2022/12/24 04:23:38;;;;;;;0.20;0.10;;;12.60;99.90;;;;;;21046343;28;20405;-76
2022/12/24 04:33:43;;;;;;;0.20;0.10;;;12.40;99.90;;;;;;21035204;28;20417;-77
2022/12/24 04:43:47;;;;;;;0.20;0.05;;;12.60;99.90;;;;;;20992840;28;20398;-77
2022/12/24 04:53:53;;;;;;;0.20;0.00;;;12.60;99.90;;;;;;20986715;28;20412;-76
2022/12/24 05:03:57;;;;;;;0.20;0.00;;;12.70;99.90;;;;;;20909027;28;20458;-78
2022/12/24 05:14:02;;;;;;;0.20;0.10;;;13.00;99.90;;;;;;20908514;28;20754;-80
2022/12/24 05:34:29;;;;;;;0.20;0.03;;;12.60;99.90;;;;;;20907730;28;20411;-74
2022/12/24 05:44:33;;;;;;;0.20;0.10;;;13.00;99.90;;;;;;20888302;28;20401;-75
2022/12/24 05:54:38;;;;;;;0.20;0.00;;;12.80;99.90;;;;;;20887961;28;20414;-75
2022/12/24 06:04:42;;;;;;;0.20;0.10;;;12.00;99.90;;;;;;20887430;28;20400;-77
2022/12/24 06:14:47;;;;;;;0.20;0.10;;;12.10;99.90;;;;;;20887133;28;20416;-76
2022/12/24 06:24:51;;;;;;;0.20;0.00;;;11.90;99.90;;;;;;20910363;28;20410;-75
2022/12/24 06:34:56;;;;;;;0.20;0.10;;;12.10;99.90;;;;;;20891902;28;20451;-79
2022/12/24 06:45:00;;;;;;;0.20;0.00;;;13.40;99.90;;;;;;20905129;28;20767;-79
2022/12/24 06:55:12;;;;;;;0.20;0.10;;;12.90;99.90;;;;;;20870768;28;20416;-78
2022/12/24 07:05:16;;;;;;;0.20;0.10;;;13.10;99.90;;;;;;20884813;28;20404;-79
2022/12/24 07:15:21;;;;;;;0.20;0.10;;;13.10;99.90;;;;;;20885837;28;20411;-77
2022/12/24 07:25:25;;;;;;;0.20;0.00;;;13.20;99.90;;;;;;20864563;28;20404;-76
2022/12/24 07:35:31;;;;;;;0.20;0.10;;;13.60;99.90;;;;;;20897902;28;20482;-77
2022/12/24 07:45:34;;;;;;;0.20;0.10;;;14.10;99.90;;;;;;20898065;28;20414;-72
2022/12/24 07:55:40;;;;;;;0.20;0.00;;;14.60;99.90;;;;;;20896731;28;20419;-78
2022/12/24 08:05:43;;;;;;;0.20;0.00;;;14.90;99.90;;;;;;20878109;28;20399;-81
2022/12/24 08:15:49;;;;;;;0.20;0.10;;;15.20;99.90;;;;;;20894913;28;20427;-79
2022/12/24 08:25:52;;;;;;;0.20;0.00;;;15.40;99.90;;;;;;20879348;28;20454;-77
2022/12/24 08:35:58;;;;;;;0.20;0.00;;;15.10;99.90;;;;;;20877640;28;20898;-78
2022/12/24 08:46:03;;;;;;;0.20;0.10;;;15.50;99.90;;;;;;20877533;28;20440;-75
2022/12/24 08:56:10;;;;;;;0.20;0.00;;;15.80;99.90;;;;;;20894314;28;20402;-77
2022/12/24 09:06:15;;;;;;;0.20;0.00;;;16.30;99.90;;;;;;20937912;28;20754;-75
2022/12/24 09:16:20;;;;;;;0.20;0.00;;;16.70;99.90;;;;;;21074425;28;20776;-79
2022/12/24 09:26:25;;;;;;;0.20;0.00;;;16.90;99.90;;;;;;21055996;28;20451;-73
2022/12/24 09:36:31;;;;;;;0.20;0.00;;;17.10;99.90;;;;;;21073518;28;20455;-77
2022/12/24 09:46:39;;;;;;;0.20;0.00;;;16.90;99.90;;;;;;21054627;28;20404;-78
2022/12/24 09:56:48;;;;;;;0.20;0.10;;;17.20;99.90;;;;;;21053295;28;20434;-76
2022/12/24 10:06:59;;;;;;;0.20;0.00;;;17.70;99.90;;;;;;21052350;28;20396;-71
2022/12/24 10:17:24;;;;;;;0.20;0.10;;;18.40;99.90;;;;;;21050142;28;20418;-75
2022/12/24 10:27:33;;;;;;;0.20;0.00;;;18.80;99.90;;;;;;21050775;28;20854;-75
2022/12/24 10:37:40;;;;;;;0.20;0.00;;;20.00;99.90;;;;;;21050066;28;20507;-75
2022/12/24 10:47:46;;;;;;;0.20;0.00;;;20.40;99.90;;;;;;20968575;28;20825;-76
2022/12/24 10:58:01;;;;;;;0.20;0.00;;;20.30;99.90;;;;;;20949382;28;20472;-74
2022/12/24 11:08:13;;;;;;;0.20;0.00;;;20.50;99.90;;;;;;20939510;28;20856;-73
2022/12/24 11:18:18;;;;;;;0.20;0.00;;;21.20;99.90;;;;;;20953657;28;20398;-75
2022/12/24 11:28:24;;;;;;;0.20;0.00;;;22.10;99.90;;;;;;20979828;28;20796;-73
2022/12/24 11:38:31;;;;;;;0.20;0.03;;;21.90;99.90;;;;;;20960427;28;20796;-75
2022/12/24 11:48:35;;;;;;;0.20;0.00;;;22.10;99.90;;;;;;20924471;28;20438;-74
2022/12/24 11:58:46;;;;;;;0.20;0.00;;;22.60;99.90;;;;;;20911811;28;20861;-71
2022/12/24 12:08:54;;;;;;;0.20;0.00;;;23.80;99.90;;;;;;20948864;28;20411;-74
2022/12/24 12:19:04;;;;;;;0.20;0.00;;;24.20;99.90;;;;;;20919131;28;20407;-73
2022/12/24 12:29:27;;;;;;;0.20;0.00;;;24.20;99.90;;;;;;20874298;28;20479;-74
2022/12/24 12:39:33;;;;;;;0.20;0.00;;;22.20;99.90;;;;;;20874812;28;20415;-75
2022/12/24 12:49:44;;;;;;;0.20;0.00;;;22.10;99.90;;;;;;20905757;28;20739;-73
2022/12/24 12:59:54;;;;;;;0.20;0.00;;;21.10;99.90;;;;;;20893681;28;20411;-74
2022/12/24 13:10:22;;;;;;;0.20;0.00;;;21.20;99.90;;;;;;20960240;28;20469;-74
2022/12/24 13:20:31;;;;;;;0.20;0.00;;;20.30;99.90;;;;;;20982729;28;20432;-73
2022/12/24 13:30:37;;;;;;;0.20;0.00;;;20.10;99.90;;;;;;20970538;28;20433;-74
2022/12/24 13:40:42;;;;;;;0.20;0.00;;;19.60;99.90;;;;;;20988191;28;20406;-74
2022/12/24 13:50:49;;;;;;;0.20;0.00;;;19.20;99.90;;;;;;20969875;28;20437;-77
2022/12/24 14:00:58;;;;;;;0.20;0.00;;;20.00;99.90;;;;;;20969655;28;20780;-77
2022/12/24 14:11:12;;;;;;;0.20;0.00;;;20.00;99.90;;;;;;20954151;28;20875;-74
2022/12/24 14:21:25;;;;;;;0.20;0.00;;;21.00;99.90;;;;;;20894808;28;21371;-72
2022/12/24 14:31:29;;;;;;;0.20;0.00;;;22.00;99.90;;;;;;20974787;28;20483;-71
2022/12/24 14:41:42;;;;;;;0.20;0.00;;;22.20;99.90;;;;;;21067969;28;20446;-72
2022/12/24 14:51:55;;;;;;;0.20;0.10;;;21.10;99.90;;;;;;20962156;28;20398;-71
2022/12/24 15:02:24;;;;;;;0.20;0.10;;;19.60;99.90;;;;;;20946956;28;20421;-71
2022/12/24 15:12:28;;;;;;;0.20;0.10;;;19.60;99.90;;;;;;20995333;28;20422;-72
2022/12/24 15:22:35;;;;;;;0.20;0.10;;;19.40;99.90;;;;;;20970802;28;21670;-74
2022/12/24 15:32:39;;;;;;;0.20;0.05;;;20.00;99.90;;;;;;20957137;28;20704;-74
2022/12/24 15:42:45;;;;;;;0.20;0.00;;;20.50;99.90;;;;;;21026412;28;20401;-75
2022/12/24 15:52:49;;;;;;;0.20;0.05;;;20.20;99.90;;;;;;21040193;28;20412;-74
2022/12/24 16:03:22;;;;;;;0.20;0.00;;;18.90;99.90;;;;;;21038848;28;20409;-73
2022/12/24 16:13:30;;;;;;;0.20;0.10;;;18.00;99.90;;;;;;21016325;28;20409;-74
2022/12/24 16:23:39;;;;;;;0.20;0.00;;;17.50;99.90;;;;;;21055548;28;20403;-74
2022/12/24 16:33:43;;;;;;;0.20;0.00;;;17.20;99.90;;;;;;21073434;28;21361;-80
2022/12/24 16:43:51;;;;;;;0.20;0.10;;;16.50;99.90;;;;;;21076134;28;20412;-74
2022/12/24 16:53:55;;;;;;;0.20;0.08;;;16.00;99.90;;;;;;21036292;28;20418;-77
2022/12/24 17:04:00;;;;;;;0.20;0.10;;;15.60;99.90;;;;;;20913006;28;20925;-74
2022/12/24 17:14:05;;;;;;;0.20;0.10;;;15.40;99.90;;;;;;20931042;28;20418;-71
2022/12/24 17:24:13;;;;;;;0.20;0.10;;;15.40;99.90;;;;;;20921910;28;20501;-72
2022/12/24 17:34:17;;;;;;;0.20;0.10;;;15.10;99.90;;;;;;20939315;28;21070;-71
2022/12/24 17:44:23;;;;;;;0.20;0.10;;;15.00;99.90;;;;;;20961926;28;20990;-71
2022/12/24 17:54:27;;;;;;;0.20;0.10;;;15.80;99.90;;;;;;20920186;28;20410;-73
2022/12/24 18:04:32;;;;;;;0.20;0.10;;;17.70;99.90;;;;;;20954585;28;20427;-72
2022/12/24 18:14:37;;;;;;;0.20;0.10;;;17.80;99.90;;;;;;20918790;28;20408;-73
2022/12/24 18:24:42;;;;;;;0.20;0.00;;;17.40;99.90;;;;;;20954735;28;20411;-72
2022/12/24 18:34:46;;;;;;;0.20;0.10;;;17.00;99.90;;;;;;20983114;28;20414;-72
2022/12/24 18:44:51;;;;;;;0.20;0.00;;;16.50;99.90;;;;;;20959803;28;20398;-72
2022/12/24 18:54:55;;;;;;;0.20;0.10;;;16.80;99.90;;;;;;20976900;28;20432;-69
2022/12/24 19:05:00;;;;;;;0.20;0.00;;;18.60;99.90;;;;;;20939123;28;20773;-71
2022/12/24 19:15:04;;;;;;;0.20;0.10;;;18.30;99.90;;;;;;20961948;28;20424;-70
2022/12/24 19:25:10;;;;;;;0.20;0.10;;;18.00;99.90;;;;;;20955565;28;20424;-70
2022/12/24 19:35:14;;;;;;;0.20;0.10;;;18.70;99.90;;;;;;20914678;28;20885;-69
2022/12/24 19:45:20;;;;;;;0.20;0.08;;;18.40;99.90;;;;;;20937580;28;20505;-70
2022/12/24 19:55:24;;;;;;;0.20;0.10;;;18.20;99.90;;;;;;20941497;28;20470;-70
2022/12/24 20:05:29;;;;;;;0.20;0.00;;;18.00;99.90;;;;;;20942495;28;20480;-70
2022/12/24 20:15:38;;;;;;;0.20;0.03;;;17.50;99.90;;;;;;20946085;28;20885;-70
2022/12/24 20:25:43;;;;;;;0.20;0.10;;;17.10;99.90;;;;;;20917457;28;20881;-70
2022/12/24 20:35:47;;;;;;;0.20;0.10;;;16.90;99.90;;;;;;20925874;28;20409;-70
2022/12/24 20:45:55;;;;;;;0.20;0.10;;;17.60;99.90;;;;;;20948048;28;20408;-71
2022/12/24 20:55:59;;;;;;;0.20;0.05;;;17.40;99.90;;;;;;20943439;28;20415;-71
2022/12/24 21:06:04;;;;;;;0.20;0.10;;;16.70;99.90;;;;;;20942049;28;20754;-70
2022/12/24 21:16:08;;;;;;;0.20;0.10;;;16.00;99.90;;;;;;20973470;28;20881;-71
2022/12/24 21:26:14;;;;;;;0.20;0.00;;;16.20;99.90;;;;;;20960374;28;20404;-70
2022/12/24 21:36:17;;;;;;;0.20;0.10;;;16.10;99.90;;;;;;20943595;28;20417;-71
2022/12/24 21:46:25;;;;;;;0.20;0.10;;;16.10;99.90;;;;;;20943596;28;20401;-71
2022/12/24 21:56:29;;;;;;;0.20;0.10;;;16.20;99.90;;;;;;20933708;28;20441;-70
2022/12/24 22:16:56;;;;;;;0.20;0.10;;;15.40;99.90;;;;;;20968052;28;20907;-69
2022/12/24 22:27:01;;;;;;;0.20;0.00;;;13.80;99.90;;;;;;20923666;28;20464;-76
2022/12/24 22:37:05;;;;;;;0.20;0.10;;;13.60;99.90;;;;;;20922465;28;20414;-70
2022/12/24 22:47:10;;;;;;;0.20;0.10;;;13.60;99.90;;;;;;20938379;28;20897;-71
2022/12/24 22:57:14;;;;;;;0.20;0.00;;;13.40;99.90;;;;;;20924836;28;20412;-70
2022/12/24 23:07:20;;;;;;;0.20;0.10;;;12.80;99.90;;;;;;20898174;28;20418;-71
2022/12/24 23:17:24;;;;;;;0.20;0.00;;;12.80;99.90;;;;;;20968837;28;20764;-72
2022/12/24 23:27:29;;;;;;;0.20;0.10;;;12.80;99.90;;;;;;20961256;28;20405;-72
2022/12/24 23:37:33;;;;;;;0.20;0.10;;;13.40;99.90;;;;;;20926479;28;20426;-72
2022/12/24 23:47:39;;;;;;;0.20;0.10;;;13.40;99.90;;;;;;20902147;28;20460;-71
2022/12/24 23:57:43;;;;;;;0.20;0.10;;;13.40;99.90;;;;;;20895898;28;20422;-71
